Tiempo atmosférico en la estación meteorológica de Alcañices, Zamora (840 m.)

Fecha
DESCASC
Temp. máxima en grados centígrados (hora)
DESCASC
Temp. mínima en grados centígrados (hora)
DESCASC
Temp. media en grados centígrados
DESCASC
Racha de viento máxima en m/sg (hora)
DESCASC
Velocidad máxima media en intervalos de 10 minutos(hora)
DESCASC
Precipitaciones diarias en mm
DESCASC
Precipitaciones de 00:00 a 06:00 en mm
DESCASC
Precipitaciones de 06:00 a 12:00 en mm
DESCASC
Precipitaciones de 12:00 a 18:00 en mm
DESCASC
Precipitaciones de 18:00 a 24:00 en mm
DESCASC
19-10-2017 11.5 (16:20) 3.4 (05:30) 7.5 7.78 (16:50) 5.28 (16:40) 0 0 0 0 0
18-10-2017 14.2 (15:40) 6.4 (23:40) 10.3 10.28 (07:00) 6.67 (16:30) 3.8 2.4 0.8 0.2 0.4
17-10-2017 17.3 (18:00) 10.7 (23:00) 14 10.83 (11:50) 7.22 (16:10) 4.4 0 4 0.4 0
16-10-2017 21.8 (13:00) 15.4 (07:50) 18.6 10.28 (12:20) 7.5 (12:20) 0.2 0 0 0.2 0
15-10-2017 30.3 (16:10) 15.2 (00:00) 22.7 17.78 (15:10) 8.33 (17:10) 1 0 0 1 0
14-10-2017 27.9 (15:40) 9.4 (00:00) 18.6 8.89 (17:20) 6.11 (17:20) 0 0 0 0 0
13-10-2017 26.5 (15:50) 9.6 (00:00) 18.1 7.78 (14:30) 4.72 (17:00) 0 0 0 0 0
12-10-2017 28.9 (17:40) 8.9 (00:00) 18.9 5.28 (13:10) 3.33 (08:10) 0 0 0 0 0
11-10-2017 26.2 (17:10) 8.5 (00:00) 17.4 8.89 (14:50) 5.28 (17:30) 0 0 0 0 0
10-10-2017 26.8 (16:00) 7 (00:00) 16.9 6.94 (17:10) 4.17 (17:10) 0 0 0 0 0
09-10-2017 29.3 (17:00) 8.6 (00:00) 18.9 6.67 (11:20) 5 (06:40) 0 0 0 0 0
08-10-2017 29.2 (16:30) 8 (00:00) 18.6 6.67 (16:50) 4.44 (08:40) 0 0 0 0 0
07-10-2017 25.8 (17:50) 6.1 (00:00) 15.9 8.89 (13:40) 6.39 (13:50) 0 0 0 0 0
06-10-2017 26.5 (17:00) 10 (00:00) 18.3 10.83 (10:20) 8.33 (02:50) 0 0 0 0 0
05-10-2017 31.4 (17:30) 13.3 (00:00) 22.3 8.06 (16:20) 5.28 (23:20) 0 0 0 0 0
04-10-2017 29.8 (16:30) 11.2 (00:00) 20.5 7.5 (04:00) 5.83 (04:50) 0 0 0 0 0
03-10-2017 31.1 (18:10) 14.2 (00:00) 22.7 6.39 (14:40) 4.44 (23:59) 0 0 0 0 0
02-10-2017 31.3 (18:00) 12.4 (00:00) 21.8 7.22 (12:40) 3.89 (04:40) 0 0 0 0 0
01-10-2017 28.1 (17:40) 9.6 (00:00) 18.9 6.39 (18:10) 3.89 (03:40) 0 0 0 0 0
30-09-2017 26.1 (17:30) 12 (00:00) 19.1 6.94 (15:30) 4.17 (20:10) 0 0 0 0 0
29-09-2017 26.6 (17:20) 12.2 (00:00) 19.4 10.28 (17:30) 6.67 (15:50) 0 0 0 0 0
28-09-2017 28 (16:30) 10.2 (00:00) 19.1 9.17 (18:10) 5 (17:00) 0 0 0 0 0
27-09-2017 26.4 (16:20) 8.7 (00:00) 17.5 10.28 (17:20) 5.28 (15:00) 0 0 0 0 0
26-09-2017 25.9 (16:20) 8 (00:00) 16.9 7.78 (10:40) 5.56 (04:40) 0 0 0 0 0
25-09-2017 25.6 (17:20) 7.7 (00:00) 16.7 7.5 (01:10) 4.17 (03:40) 0 0 0 0 0
24-09-2017 26.1 (16:30) 9 (00:00) 17.6 11.39 (16:40) 6.94 (16:10) 0 0 0 0 0
23-09-2017 25.9 (16:10) 9.3 (00:00) 17.6 10.28 (14:20) 6.67 (15:10) 0 0 0 0 0
22-09-2017 25.1 (15:40) 10.8 (00:00) 18 9.72 (10:50) 7.22 (10:20) 0 0 0 0 0
21-09-2017 25.1 (18:30) 11.1 (00:00) 18.1 8.33 (17:50) 4.72 (23:59) 0 0 0 0 0
20-09-2017 26.7 (16:40) 6.8 (00:00) 16.8 7.5 (15:50) 4.72 (16:20) 0 0 0 0 0

Gráficas

Temp. máximas Temp. mínimas Temp. medias Precipitaciones Rachas de viento máximas Velocidades máximas media en intervalos de 10 minutos

Datos horarios

Fecha y hora oficial Temperatura (ºC) Velocidad del viento (km/h) Dirección del viento Racha (km/h) Dirección de racha Precipitación (mm) Presión (hPa) Tendencia (hPa) Humedad (%)
2017-10-19 23:00:00 10.4 12 Sudoeste 16 Sudoeste 0 -- -- 97
2017-10-19 22:00:00 10.3 11 Sudoeste 15 Sudoeste 0 -- -- 94
2017-10-19 21:00:00 10.5 9 Sudoeste 18 Oeste 0 -- -- 93
2017-10-19 20:00:00 10.4 10 Sudoeste 23 Sudoeste 0 -- -- 92
2017-10-19 19:00:00 10.5 15 Sudoeste 25 Sudoeste 0 -- -- 91
2017-10-19 18:00:00 10.7 15 Sudoeste 25 Sudoeste 0 -- -- 83
2017-10-19 17:00:00 11.5 19 Sudoeste 28 Sudoeste 0 -- -- 74
2017-10-19 16:00:00 11.2 15 Sudoeste 23 Sudoeste 0 -- -- 77
2017-10-19 15:00:00 10.5 16 Sudoeste 24 Sudoeste 0 -- -- 81
2017-10-19 14:00:00 9.8 9 Sudoeste 17 Sudoeste 0 -- -- 93
2017-10-19 13:00:00 9.4 12 Sudoeste 15 Sudoeste 0 -- -- 96
2017-10-19 12:00:00 8.2 10 Sudoeste 14 Sudoeste 0 -- -- 100
2017-10-19 11:00:00 7.5 6 Sudoeste 11 Sudoeste 0 -- -- 100
2017-10-19 10:00:00 5.9 4 Sudoeste 6 Sudoeste 0 -- -- 100
2017-10-19 09:00:00 4.7 4 Sudoeste 7 Noroeste 0 -- -- 100
2017-10-19 08:00:00 5 5 Oeste 13 Sudoeste 0 -- -- 100
2017-10-19 07:00:00 5.6 8 Sudoeste 10 Oeste 0 -- -- 100
2017-10-19 06:00:00 3.8 0 Calma 5 Oeste 0 -- -- 100
2017-10-19 05:00:00 4 6 Oeste 12 Oeste 0 -- -- 99
2017-10-19 04:00:00 5.9 9 Oeste 12 Oeste 0 -- -- 100
2017-10-19 03:00:00 5.7 8 Sudoeste 13 Sudoeste 0 -- -- 100
2017-10-19 02:00:00 5.6 5 Oeste 11 Oeste 0 -- -- 97
2017-10-19 01:00:00 6.4 10 Sudoeste 13 Sudoeste 0 -- -- 97
2017-10-19 00:00:00 6.6 6 Sudoeste 10 Oeste 0 -- -- 99
2017-10-18 23:00:00 6.9 9 Oeste 14 Oeste 0 -- -- 97
2017-10-18 22:00:00 7.4 10 Oeste 15 Oeste 0 -- -- 95
2017-10-18 21:00:00 8.4 12 Oeste 19 Oeste 0 -- -- 92
2017-10-18 20:00:00 8.7 12 Oeste 22 Oeste 0 -- -- 92
2017-10-18 19:00:00 9 13 Oeste 29 Oeste 0.4 -- -- 90
2017-10-18 18:00:00 10.8 15 Oeste 27 Oeste 0.2 -- -- 81
2017-10-18 17:00:00 11.8 17 Oeste 37 Oeste 0 -- -- 78
2017-10-18 16:00:00 12.9 19 Oeste 36 Oeste 0 -- -- 64
2017-10-18 15:00:00 13.7 14 Oeste 31 Oeste 0 -- -- 65
2017-10-18 14:00:00 12.2 16 Oeste 29 Oeste 0 -- -- 69
2017-10-18 13:00:00 10.4 19 Oeste 28 Oeste 0 -- -- 83
2017-10-18 12:00:00 10.2 15 Sudoeste 23 Sudoeste 0 -- -- 88
2017-10-18 11:00:00 9.1 14 Sudoeste 19 Sudoeste 0 -- -- 98
2017-10-18 10:00:00 8.5 9 Oeste 31 Sudoeste 0 -- -- 98
2017-10-18 09:00:00 9 14 Sur 24 Sur 0 -- -- 99
2017-10-18 08:00:00 8.7 14 Sur 32 Sur 0.2 -- -- 99
2017-10-18 07:00:00 9 22 Sur 37 Sur 0.6 -- -- 98
2017-10-18 06:00:00 9.2 19 Sur 26 Sur 0.4 -- -- 96
2017-10-18 05:00:00 9.4 14 Sudeste 22 Sur 0.2 -- -- 96
2017-10-18 04:00:00 9.4 7 Sudeste 14 Sur 0.4 -- -- 98
2017-10-18 03:00:00 9.2 0 Calma 10 Sudoeste 1.4 -- -- 97
2017-10-18 02:00:00 9.8 8 Sudoeste 21 Oeste 0 -- -- 90
2017-10-18 01:00:00 11.3 15 Sudoeste 26 Sudoeste 0 -- -- 72
2017-10-18 00:00:00 11 6 Sur 13 Sur 0 -- -- 71
2017-10-17 23:00:00 10.7 8 Sur 13 Sudoeste 0 -- -- 72
2017-10-17 22:00:00 11.6 10 Sudoeste 13 Sudoeste 0 -- -- 65
2017-10-17 21:00:00 12 9 Sudoeste 12 Sudoeste 0 -- -- 66
2017-10-17 20:00:00 13.3 7 Sudoeste 27 Sudoeste 0 -- -- 62
2017-10-17 19:00:00 15.4 15 Sudoeste 26 Oeste 0 -- -- 56
2017-10-17 18:00:00 17.3 16 Sudoeste 34 Sudoeste 0 -- -- 53
2017-10-17 17:00:00 16.6 20 Sudoeste 37 Sudoeste 0 -- -- 56
2017-10-17 16:00:00 15.6 23 Sudoeste 36 Sudoeste 0 -- -- 59
2017-10-17 15:00:00 15.2 19 Sudoeste 28 Sudoeste 0 -- -- 75
2017-10-17 14:00:00 12.9 16 Sudoeste 26 Sudoeste 0 -- -- 96
2017-10-17 13:00:00 12.7 22 Sudoeste 35 Sudoeste 0.4 -- -- 99
2017-10-17 12:00:00 14 20 Sudoeste 39 Sudeste 1.2 -- -- 96
2017-10-17 11:00:00 14.8 15 Sur 22 Sur 0 -- -- 96
2017-10-17 10:00:00 14.3 13 Sur 22 Sur 0.2 -- -- 98
2017-10-17 09:00:00 13.8 14 Sur 25 Sur 1.2 -- -- 97
2017-10-17 08:00:00 14 18 Sur 30 Sur 1.4 -- -- 92
2017-10-17 07:00:00 15.4 15 Sur 24 Sur 0 -- -- 75
2017-10-17 06:00:00 15.6 10 Sur 18 Sur 0 -- -- 67
2017-10-17 05:00:00 15.1 10 Sudeste 12 Sudeste 0 -- -- 66
2017-10-17 04:00:00 14.3 9 Este 12 Este 0 -- -- 73
2017-10-17 03:00:00 14.6 5 Este 10 Este 0 -- -- 70
2017-10-17 02:00:00 15.9 4 Sudeste 8 Sur 0 -- -- 58
2017-10-17 01:00:00 16.2 3 Sur 9 Oeste 0 -- -- 58
2017-10-17 00:00:00 16.7 6 Sudoeste 10 Sur 0 -- -- 57
2017-10-16 23:00:00 17.1 6 Sur 14 Sudeste 0 -- -- 57
2017-10-16 22:00:00 17.7 10 Sudeste 19 Sur 0 -- -- 53
2017-10-16 21:00:00 18.5 13 Sur 19 Sudoeste 0 -- -- 47
2017-10-16 20:00:00 19 12 Sur 19 Sur 0 -- -- 45
2017-10-16 19:00:00 20.1 9 Sur 14 Sur 0 -- -- 46
2017-10-16 18:00:00 20.7 10 Sur 15 Sur 0 -- -- 42
2017-10-16 17:00:00 20.5 7 Sudoeste 13 Sudeste 0 -- -- 43
2017-10-16 16:00:00 18.4 10 Sur 22 Sudeste 0 -- -- 52
2017-10-16 15:00:00 17.6 16 Sur 25 Sur 0.2 -- -- 54
2017-10-16 14:00:00 18.6 17 Sur 33 Sudoeste 0 -- -- 49
2017-10-16 13:00:00 21.8 21 Sur 37 Sur 0 -- -- 33
2017-10-16 12:00:00 20.8 21 Sur 36 Sur 0 -- -- 35
2017-10-16 11:00:00 19.6 22 Sur 35 Sur 0 -- -- 40
2017-10-16 10:00:00 18.2 16 Sur 31 Sur 0 -- -- 44
2017-10-16 09:00:00 17 19 Sur 33 Sur 0 -- -- 48
2017-10-16 08:00:00 15.5 14 Sur 21 Sur 0 -- -- 50
2017-10-16 07:00:00 16.5 15 Sur 26 Sur 0 -- -- 46
2017-10-16 06:00:00 17.2 19 Sur 30 Sur 0 -- -- 44
2017-10-16 05:00:00 17.6 17 Sur 27 Sur 0 -- -- 43
2017-10-16 04:00:00 17.4 12 Sudoeste 26 Sur 0 -- -- 44
2017-10-16 03:00:00 17 10 Sur 25 Sur 0 -- -- 46
2017-10-16 02:00:00 19.1 19 Sudeste 29 Sur 0 -- -- 41
2017-10-16 01:00:00 19.6 18 Sur 27 Sudeste 0 -- -- 41
2017-10-16 00:00:00 20.4 19 Sur 27 Sur 0 -- -- 39
2017-10-15 23:00:00 20.4 16 Sur 24 Sur 0 -- -- 39
2017-10-15 22:00:00 21.1 17 Sudeste 22 Sur 0 -- -- 37
2017-10-15 21:00:00 21.5 14 Sudeste 22 Sur 0 -- -- 36
2017-10-15 20:00:00 23.2 14 Sur 34 Sur 0 -- -- 33
2017-10-15 19:00:00 26 24 Sur 45 Sur 0 -- -- 29
2017-10-15 18:00:00 25.8 21 Sur 57 Sudoeste 1 -- -- 35
2017-10-15 17:00:00 27.3 20 Sur 43 Sur 0 -- -- 25
2017-10-15 16:00:00 29.6 21 Sur 64 Sur 0 -- -- 22
2017-10-15 15:00:00 28.9 18 Sur 34 Sudeste 0 -- -- 24
2017-10-15 14:00:00 28.1 15 Sudeste 25 Sudeste 0 -- -- 27
2017-10-15 13:00:00 25.5 14 Sudeste 20 Sudeste 0 -- -- 32
2017-10-15 12:00:00 22.4 8 Sudeste 13 Este 0 -- -- 36
2017-10-15 11:00:00 19.7 7 Nordeste 12 Norte 0 -- -- 43
2017-10-15 10:00:00 17.8 9 Norte 19 Noroeste 0 -- -- 46
2017-10-15 09:00:00 16.4 6 Este 14 Este 0 -- -- 47
2017-10-15 08:00:00 15.5 12 Este 14 Este 0 -- -- 48
2017-10-15 07:00:00 15.7 8 Nordeste 11 Nordeste 0 -- -- 47
2017-10-15 06:00:00 15.6 6 Nordeste 9 Este 0 -- -- 47
2017-10-15 05:00:00 15.6 7 Este 9 Este 0 -- -- 46
2017-10-15 04:00:00 15.9 7 Este 12 Este 0 -- -- 46
2017-10-15 03:00:00 16.9 5 Este 9 Sudeste 0 -- -- 44
2017-10-15 02:00:00 17.4 5 Este 9 Sur 0 -- -- 42
2017-10-15 01:00:00 19.1 7 Sur 10 Sur 0 -- -- 38
2017-10-15 00:00:00 20 5 Sur 6 Sur 0 -- -- 36
2017-10-14 23:00:00 19.5 -- -- -- -- 0 -- -- 35
2017-10-14 22:00:00 19.5 5 Oeste 10 Sudoeste 0 -- -- 35
2017-10-14 21:00:00 21.3 11 Sudoeste 14 Sudoeste 0 -- -- 32
2017-10-14 20:00:00 21.2 11 Sudoeste 17 Sudoeste 0 -- -- 32
2017-10-14 19:00:00 23.8 14 Sudoeste 27 Sudoeste 0 -- -- 27
2017-10-14 18:00:00 27.2 19 Oeste 32 Oeste 0 -- -- 23
2017-10-14 17:00:00 27.2 20 Oeste 29 Sudoeste 0 -- -- 22
2017-10-14 16:00:00 27.7 15 Sudoeste 27 Sudoeste 0 -- -- 21
2017-10-14 15:00:00 26.8 12 Sudoeste 21 Sudoeste 0 -- -- 23
2017-10-14 14:00:00 25.4 11 Sur 24 Sudoeste 0 -- -- 26
2017-10-14 13:00:00 24.6 8 Sur 15 Sudeste 0 -- -- 29
2017-10-14 12:00:00 22.5 4 Sur 11 Sudeste 0 -- -- 35
2017-10-14 11:00:00 19.4 6 Este 10 Este 0 -- -- 42
2017-10-14 10:00:00 14.7 6 Este 11 Nordeste 0 -- -- 52
2017-10-14 09:00:00 10.4 9 Este 13 Este 0 -- -- 64
2017-10-14 08:00:00 9.4 8 Este 12 Este 0 -- -- 66
2017-10-14 07:00:00 12.6 5 Sudeste 10 Este 0 -- -- 55
2017-10-14 06:00:00 12.5 4 Sudeste 8 Norte 0 -- -- 55
2017-10-14 05:00:00 12 7 Nordeste 10 Nordeste 0 -- -- 57
2017-10-14 04:00:00 11.1 7 Nordeste 9 Nordeste 0 -- -- 60
2017-10-14 03:00:00 15 3 Sudeste 8 Sudeste 0 -- -- 47
2017-10-14 02:00:00 16.3 6 Sudeste 11 Sudeste 0 -- -- 44
2017-10-14 01:00:00 15.3 8 Sudeste 11 Sudeste 0 -- -- 47
2017-10-14 00:00:00 15.7 4 Nordeste 6 Nordeste 0 -- -- 45
2017-10-13 23:00:00 17.3 6 Noroeste 6 Noroeste 0 -- -- 42
2017-10-13 22:00:00 17.5 5 Noroeste 6 Noroeste 0 -- -- 41
2017-10-13 21:00:00 18.5 3 Sudoeste 6 Sudoeste 0 -- -- 39
2017-10-13 20:00:00 20.2 4 Oeste 9 Noroeste 0 -- -- 36
2017-10-13 19:00:00 25 6 Noroeste 16 Oeste 0 -- -- 30
2017-10-13 18:00:00 25.3 8 Sudoeste 22 Sudoeste 0 -- -- 31
2017-10-13 17:00:00 24.1 17 Sudoeste 27 Oeste 0 -- -- 32
2017-10-13 16:00:00 26.3 9 Sudoeste 28 Sudoeste 0 -- -- 30
2017-10-13 15:00:00 25.7 14 Sudoeste 28 Sudoeste 0 -- -- 31
2017-10-13 14:00:00 24.5 14 Sur 24 Sur 0 -- -- 35
2017-10-13 13:00:00 24.8 9 Sur 21 Sur 0 -- -- 33
2017-10-13 12:00:00 22.6 5 Sudeste 10 Este 0 -- -- 30
2017-10-13 11:00:00 19.2 5 Este 10 Este 0 -- -- 34
2017-10-13 10:00:00 16.4 5 Este 10 Este 0 -- -- 38
2017-10-13 09:00:00 12.1 6 Este 12 Este 0 -- -- 50
2017-10-13 08:00:00 10 10 Este 13 Este 0 -- -- 56
2017-10-13 07:00:00 11.2 8 Este 13 Nordeste 0 -- -- 50
2017-10-13 06:00:00 9.9 11 Nordeste 12 Nordeste 0 -- -- 49
2017-10-13 05:00:00 14.5 3 Sudeste 10 Sur 0 -- -- 43
2017-10-13 04:00:00 15.5 6 Sudeste 13 Sur 0 -- -- 42
2017-10-13 03:00:00 17.2 7 Sur 10 Sur 0 -- -- 37
2017-10-13 02:00:00 14.5 8 Este 14 Este 0 -- -- 36
2017-10-13 01:00:00 16.3 11 Este 15 Este 0 -- -- 32
2017-10-13 00:00:00 15 9 Este 14 Nordeste 0 -- -- 35
2017-10-12 23:00:00 16.7 9 Nordeste 10 Este 0 -- -- 31
2017-10-12 22:00:00 18.4 10 Este 13 Este 0 -- -- 28
2017-10-12 21:00:00 19.1 2 Sudoeste 9 Nordeste 0 -- -- 28
2017-10-12 20:00:00 22.4 8 Nordeste 10 Nordeste 0 -- -- 23
2017-10-12 19:00:00 28.9 2 Norte 13 Oeste 0 -- -- 17
2017-10-12 18:00:00 27.9 9 Sudoeste 17 Sudoeste 0 -- -- 18
2017-10-12 17:00:00 27.7 12 Sur 18 Sudoeste 0 -- -- 17
2017-10-12 16:00:00 28.1 8 Sudeste 17 Sur 0 -- -- 16
2017-10-12 15:00:00 26.8 8 Sudeste 18 Sur 0 -- -- 17
2017-10-12 14:00:00 26.4 5 Este 19 Sudeste 0 -- -- 17
2017-10-12 13:00:00 24.6 9 Sudeste 17 Este 0 -- -- 19
2017-10-12 12:00:00 21.8 7 Este 13 Este 0 -- -- 23
2017-10-12 11:00:00 18.1 6 Nordeste 9 Este 0 -- -- 28
2017-10-12 10:00:00 13.7 6 Nordeste 12 Nordeste 0 -- -- 32
2017-10-12 09:00:00 10 9 Nordeste 13 Nordeste 0 -- -- 36
2017-10-12 08:00:00 10.3 11 Nordeste 13 Nordeste 0 -- -- 35
2017-10-12 07:00:00 10 9 Nordeste 12 Nordeste 0 -- -- 37
2017-10-12 06:00:00 10.2 4 Nordeste 6 Nordeste 0 -- -- 37
2017-10-12 05:00:00 14.9 3 Sudeste 8 Este 0 -- -- 27
2017-10-12 04:00:00 13.5 3 Sudeste 9 Este 0 -- -- 29
2017-10-12 03:00:00 12.6 7 Nordeste 10 Este 0 -- -- 31
2017-10-12 02:00:00 14.7 2 Oeste -- -- 0 -- -- 27
2017-10-12 01:00:00 17 5 Oeste 6 Oeste 0 -- -- 23
2017-10-12 00:00:00 14.4 3 Oeste 8 Noroeste 0 -- -- 28
2017-10-11 23:00:00 15.7 8 Noroeste 9 Noroeste 0 -- -- 27
2017-10-11 22:00:00 16.8 8 Noroeste 11 Oeste 0 -- -- 26
2017-10-11 21:00:00 18.1 8 Noroeste 13 Oeste 0 -- -- 24
2017-10-11 20:00:00 20.1 9 Oeste 21 Oeste 0 -- -- 21
2017-10-11 19:00:00 23.9 14 Oeste 27 Oeste 0 -- -- 17
2017-10-11 18:00:00 24.9 16 Oeste 30 Oeste 0 -- -- 17
2017-10-11 17:00:00 25.8 14 Sudoeste 31 Sudoeste 0 -- -- 17
2017-10-11 16:00:00 26 18 Oeste 32 Sudoeste 0 -- -- 16
2017-10-11 15:00:00 25.1 17 Oeste 32 Oeste 0 -- -- 14
2017-10-11 14:00:00 24.9 14 Oeste 29 Sudoeste 0 -- -- 15
2017-10-11 13:00:00 25 4 Sudoeste 10 Noroeste 0 -- -- 17
2017-10-11 12:00:00 22.8 4 Noroeste 9 Oeste 0 -- -- 22
2017-10-11 11:00:00 17.9 5 Sudeste 8 Sudeste 0 -- -- 31
2017-10-11 10:00:00 13.8 5 Sudeste 10 Sudeste 0 -- -- 35
2017-10-11 09:00:00 9.9 6 Este 10 Sudeste 0 -- -- 36
2017-10-11 08:00:00 11.4 8 Sudeste 10 Sudeste 0 -- -- 34
2017-10-11 07:00:00 11.8 7 Este 10 Nordeste 0 -- -- 30
2017-10-11 06:00:00 9.5 10 Nordeste 12 Nordeste 0 -- -- 34
2017-10-11 05:00:00 12.8 0 Calma 3 Noroeste 0 -- -- 27
2017-10-11 04:00:00 14 4 Sudeste 6 Sudeste 0 -- -- 26
2017-10-11 03:00:00 13.3 0 Calma 3 Este 0 -- -- 26
2017-10-11 02:00:00 14.7 3 Sudeste 5 Sudeste 0 -- -- 24
2017-10-11 01:00:00 13.7 0 Calma 9 Nordeste 0 -- -- 25
2017-10-11 00:00:00 15.7 5 Sudoeste 6 Sudoeste 0 -- -- 22
2017-10-10 23:00:00 14 6 Oeste 10 Sudoeste 0 -- -- 25
2017-10-10 22:00:00 16.7 7 Sudoeste 8 Sudoeste 0 -- -- 21
2017-10-10 21:00:00 18.8 8 Oeste 17 Sudoeste 0 -- -- 20
2017-10-10 20:00:00 19.4 13 Sudoeste 15 Sudoeste 0 -- -- 21
2017-10-10 19:00:00 24.2 11 Sudoeste 22 Sudoeste 0 -- -- 17
2017-10-10 18:00:00 25.9 12 Sudoeste 25 Sur 0 -- -- 13
2017-10-10 17:00:00 26.2 11 Sur 22 Sudoeste 0 -- -- 15
2017-10-10 16:00:00 26.8 10 Sur 19 Sudoeste 0 -- -- 15
2017-10-10 15:00:00 25.8 10 Sur 23 Sudoeste 0 -- -- 15
2017-10-10 14:00:00 25.7 6 Este 15 Sudeste 0 -- -- 19
2017-10-10 13:00:00 23.6 8 Este 16 Nordeste 0 -- -- 22
2017-10-10 12:00:00 21.2 10 Nordeste 17 Nordeste 0 -- -- 27
2017-10-10 11:00:00 18.5 9 Nordeste 13 Nordeste 0 -- -- 31
2017-10-10 10:00:00 14.6 4 Este 10 Nordeste 0 -- -- 36
2017-10-10 09:00:00 10.9 6 Este 14 Nordeste 0 -- -- 40
2017-10-10 08:00:00 7.5 9 Este 13 Este 0 -- -- 46
2017-10-10 07:00:00 7.7 8 Norte 13 Este 0 -- -- 45
2017-10-10 06:00:00 10.2 12 Este 14 Este 0 -- -- 39
2017-10-10 05:00:00 9.4 10 Nordeste 15 Este 0 -- -- 40
2017-10-10 04:00:00 10.7 10 Este 17 Nordeste 0 -- -- 38
2017-10-10 03:00:00 13.3 8 Este 10 Este 0 -- -- 32
2017-10-10 02:00:00 15.3 3 Sur 7 Sudeste 0 -- -- 28
2017-10-10 01:00:00 15.8 5 Sudeste 10 Nordeste 0 -- -- 27
2017-10-10 00:00:00 17.2 3 Sudeste 6 Sur 0 -- -- 24
2017-10-09 23:00:00 18 8 Sudeste 10 Sudeste 0 -- -- 23
2017-10-09 22:00:00 18.6 7 Sudeste 10 Sudeste 0 -- -- 22
2017-10-09 21:00:00 18.7 6 Sur 8 Sudeste 0 -- -- 23
2017-10-09 20:00:00 20.4 6 Sur 9 Sudeste 0 -- -- 23
2017-10-09 19:00:00 25.7 8 Sudeste 12 Sudeste 0 -- -- 16
2017-10-09 18:00:00 28.1 4 Este 10 Nordeste 0 -- -- 13
2017-10-09 17:00:00 29.3 3 Nordeste 10 Noroeste 0 -- -- 14
2017-10-09 16:00:00 27 5 Sudeste 17 Este 0 -- -- 16
2017-10-09 15:00:00 25 6 Sur 16 Este 0 -- -- 17
2017-10-09 14:00:00 23.4 8 Este 19 Este 0 -- -- 19
2017-10-09 13:00:00 22.2 10 Este 21 Este 0 -- -- 24
2017-10-09 12:00:00 20 12 Este 24 Este 0 -- -- 28
2017-10-09 11:00:00 17.3 14 Nordeste 21 Nordeste 0 -- -- 33
2017-10-09 10:00:00 13.6 14 Nordeste 18 Este 0 -- -- 41
2017-10-09 09:00:00 10.7 14 Nordeste 17 Nordeste 0 -- -- 48
2017-10-09 08:00:00 8.8 14 Nordeste 18 Nordeste 0 -- -- 53
2017-10-09 07:00:00 8.9 17 Nordeste 20 Nordeste 0 -- -- 52
2017-10-09 06:00:00 8.9 15 Nordeste 18 Nordeste 0 -- -- 47
2017-10-09 05:00:00 9.3 16 Nordeste 19 Nordeste 0 -- -- 43
2017-10-09 04:00:00 10 15 Nordeste 18 Nordeste 0 -- -- 38
2017-10-09 03:00:00 10.7 15 Nordeste 18 Nordeste 0 -- -- 35
2017-10-09 02:00:00 11.4 16 Nordeste 20 Nordeste 0 -- -- 33
2017-10-09 01:00:00 15.3 5 Nordeste 9 Norte 0 -- -- 25
2017-10-09 00:00:00 16.5 5 Norte 13 Norte 0 -- -- 23
2017-10-08 23:00:00 18 6 Oeste -- -- 0 -- -- 21
2017-10-08 22:00:00 18.5 3 Sur 9 Sudoeste 0 -- -- 20
2017-10-08 21:00:00 18.5 6 Sudoeste 9 Sudoeste 0 -- -- 20
2017-10-08 20:00:00 21 5 Sudoeste 15 Sudoeste 0 -- -- 19
2017-10-08 19:00:00 25.4 12 Sudoeste 21 Sudoeste 0 -- -- 14
2017-10-08 18:00:00 26.4 16 Sudoeste 23 Oeste 0 -- -- 13
2017-10-08 17:00:00 27.8 10 Oeste 24 Oeste 0 -- -- 12
2017-10-08 16:00:00 28.2 8 Sudoeste 21 Sudoeste 0 -- -- 12
2017-10-08 15:00:00 27.1 6 Sudoeste 15 Sudoeste 0 -- -- 12
2017-10-08 14:00:00 25.7 8 Sudeste 14 Sudeste 0 -- -- 12
2017-10-08 13:00:00 23.9 9 Este 17 Este 0 -- -- 15
2017-10-08 12:00:00 21.5 8 Este 16 Este 0 -- -- 17
2017-10-08 11:00:00 19 8 Este 13 Este 0 -- -- 21
2017-10-08 10:00:00 15.6 9 Nordeste 15 Nordeste 0 -- -- 24
2017-10-08 09:00:00 9.3 14 Nordeste 17 Nordeste 0 -- -- 34
2017-10-08 08:00:00 8.7 14 Nordeste 15 Nordeste 0 -- -- 33
2017-10-08 07:00:00 10.3 8 Nordeste 15 Nordeste 0 -- -- 28
2017-10-08 06:00:00 9 5 Nordeste 15 Nordeste 0 -- -- 27
2017-10-08 05:00:00 10.3 14 Nordeste 15 Nordeste 0 -- -- 24
2017-10-08 04:00:00 10.6 13 Nordeste 17 Este 0 -- -- 24
2017-10-08 03:00:00 11.9 13 Este 15 Este 0 -- -- 22
2017-10-08 02:00:00 13.7 13 Nordeste 14 Nordeste 0 -- -- 18
2017-10-08 01:00:00 15.2 9 Nordeste 12 Nordeste 0 -- -- 17
2017-10-08 00:00:00 15.3 12 Nordeste 12 Nordeste 0 -- -- 16
2017-10-07 23:00:00 15.6 6 Norte 8 Norte 0 -- -- 15
2017-10-07 22:00:00 15.8 4 Noroeste -- -- 0 -- -- 17
2017-10-07 21:00:00 19.6 7 Este 9 Este 0 -- -- 11
2017-10-07 20:00:00 20.5 6 Este 13 Este 0 -- -- 13
2017-10-07 19:00:00 24.9 9 Este 20 Nordeste 0 -- -- 9
2017-10-07 18:00:00 25.6 11 Nordeste 24 Este 0 -- -- 9
2017-10-07 17:00:00 25.4 12 Este 28 Este 0 -- -- 13
2017-10-07 16:00:00 24.7 14 Nordeste 30 Este 0 -- -- 11
2017-10-07 15:00:00 23.7 19 Este 30 Nordeste 0 -- -- 14
2017-10-07 14:00:00 22.9 19 Este 32 Este 0 -- -- 16
2017-10-07 13:00:00 20.6 21 Nordeste 31 Nordeste 0 -- -- 26
2017-10-07 12:00:00 16.8 12 Este 26 Este 0 -- -- 42
2017-10-07 11:00:00 14.1 19 Este 24 Este 0 -- -- 49
2017-10-07 10:00:00 11.3 17 Este 22 Este 0 -- -- 62
2017-10-07 09:00:00 8.1 16 Este 21 Nordeste 0 -- -- 75
2017-10-07 08:00:00 6.9 19 Nordeste 23 Este 0 -- -- 78
2017-10-07 07:00:00 6.5 17 Nordeste 21 Nordeste 0 -- -- 82
2017-10-07 06:00:00 8.3 17 Nordeste 23 Nordeste 0 -- -- 77
2017-10-07 05:00:00 8.5 15 Este 26 Este 0 -- -- 76
2017-10-07 04:00:00 10 16 Nordeste 24 Este 0 -- -- 68
2017-10-07 03:00:00 11.1 18 Nordeste 25 Nordeste 0 -- -- 67
2017-10-07 02:00:00 11.9 17 Nordeste 26 Nordeste 0 -- -- 69
2017-10-07 01:00:00 12.1 15 Este 20 Este 0 -- -- 69
2017-10-07 00:00:00 13.6 14 Nordeste 22 Nordeste 0 -- -- 57
2017-10-06 23:00:00 14.6 15 Nordeste 23 Nordeste 0 -- -- 48
2017-10-06 22:00:00 16.8 17 Nordeste 21 Este 0 -- -- 44
2017-10-06 21:00:00 17.8 10 Este 15 Este 0 -- -- 35
2017-10-06 20:00:00 20.1 14 Este 17 Este 0 -- -- 30
2017-10-06 19:00:00 25 13 Este 21 Este 0 -- -- 21
2017-10-06 18:00:00 26 15 Este 24 Este 0 -- -- 20
2017-10-06 17:00:00 26.5 11 Este 29 Este 0 -- -- 22
2017-10-06 16:00:00 25.2 14 Este 28 Nordeste 0 -- -- 26
2017-10-06 15:00:00 24 18 Este 30 Este 0 -- -- 33
2017-10-06 14:00:00 22.9 21 Este 35 Este 0 -- -- 37
2017-10-06 13:00:00 21.7 22 Este 36 Este 0 -- -- 40
2017-10-06 12:00:00 19.2 26 Nordeste 37 Nordeste 0 -- -- 45
2017-10-06 11:00:00 16.1 29 Este 39 Nordeste 0 -- -- 60
2017-10-06 10:00:00 13.4 22 Nordeste 28 Nordeste 0 -- -- 78
2017-10-06 09:00:00 10.5 20 Nordeste 25 Nordeste 0 -- -- 92
2017-10-06 08:00:00 10.4 22 Nordeste 27 Nordeste 0 -- -- 92
2017-10-06 07:00:00 11.1 19 Nordeste 27 Nordeste 0 -- -- 89
2017-10-06 06:00:00 11.2 16 Este 24 Nordeste 0 -- -- 88
2017-10-06 05:00:00 12.4 15 Este 31 Este 0 -- -- 83
2017-10-06 04:00:00 13.8 25 Nordeste 37 Nordeste 0 -- -- 76
2017-10-06 03:00:00 14.9 28 Nordeste 38 Nordeste 0 -- -- 72
2017-10-06 02:00:00 15.7 23 Nordeste 36 Nordeste 0 -- -- 68
2017-10-06 01:00:00 16.8 23 Nordeste 31 Este 0 -- -- 68
2017-10-06 00:00:00 16.5 17 Nordeste 27 Nordeste 0 -- -- 49
2017-10-05 23:00:00 19.3 6 Noroeste 8 Oeste 0 -- -- 30
2017-10-05 22:00:00 22.3 5 Sudoeste 10 Sudoeste 0 -- -- 25
2017-10-05 21:00:00 23.4 6 Oeste 13 Oeste 0 -- -- 23
2017-10-05 20:00:00 25 9 Oeste 21 Oeste 0 -- -- 22
2017-10-05 19:00:00 28.9 16 Sudoeste 22 Sudoeste 0 -- -- 21
2017-10-05 18:00:00 30.2 11 Sur 22 Sudoeste 0 -- -- 20
2017-10-05 17:00:00 30.3 12 Oeste 29 Oeste 0 -- -- 21
2017-10-05 16:00:00 30.4 13 Oeste 24 Sur 0 -- -- 23
2017-10-05 15:00:00 29.9 10 Sudoeste 23 Oeste 0 -- -- 24
2017-10-05 14:00:00 28.7 13 Sudoeste 24 Sudoeste 0 -- -- 28
2017-10-05 13:00:00 27.6 10 Sur 17 Sudoeste 0 -- -- 31
2017-10-05 12:00:00 27 4 Este 10 Nordeste 0 -- -- 34
2017-10-05 11:00:00 25.1 3 Este 6 Este 0 -- -- 36
2017-10-05 10:00:00 20.1 3 Este 13 Este 0 -- -- 47
2017-10-05 09:00:00 15.2 10 Este 13 Este 0 -- -- 60
2017-10-05 08:00:00 14.6 10 Este 14 Este 0 -- -- 61
2017-10-05 07:00:00 13.7 5 Este 14 Este 0 -- -- 64
2017-10-05 06:00:00 15.4 10 Este 12 Este 0 -- -- 58
2017-10-05 05:00:00 15.4 6 Nordeste 13 Nordeste 0 -- -- 57
2017-10-05 04:00:00 15.8 4 Norte 8 Norte 0 -- -- 56
2017-10-05 03:00:00 15.9 5 Norte 10 Norte 0 -- -- 54
2017-10-05 02:00:00 16 7 Norte 11 Norte 0 -- -- 54
2017-10-05 01:00:00 16.4 4 Noroeste 6 Noroeste 0 -- -- 53
2017-10-05 00:00:00 19.6 7 Sudeste 23 Sudeste 0 -- -- 44
2017-10-04 23:00:00 19.4 9 Nordeste 10 Nordeste 0 -- -- 45
2017-10-04 22:00:00 20.9 4 Noroeste 7 Noroeste 0 -- -- 38
2017-10-04 21:00:00 22 6 Noroeste 7 Noroeste 0 -- -- 38
2017-10-04 20:00:00 24.7 6 Oeste 14 Sudoeste 0 -- -- 33
2017-10-04 19:00:00 28.8 8 Oeste 19 Sudoeste 0 -- -- 27
2017-10-04 18:00:00 29.2 7 Sur 21 Sudoeste 0 -- -- 28
2017-10-04 17:00:00 29.3 10 Sudoeste 23 Sur 0 -- -- 28
2017-10-04 16:00:00 29.7 6 Este 21 Sudeste 0 -- -- 29
2017-10-04 15:00:00 27.3 7 Sudeste 21 Este 0 -- -- 35
2017-10-04 14:00:00 25.5 10 Este 22 Este 0 -- -- 40
2017-10-04 13:00:00 23.6 13 Este 22 Este 0 -- -- 45
2017-10-04 12:00:00 21.4 14 Este 23 Este 0 -- -- 53
2017-10-04 11:00:00 17.9 13 Nordeste 24 Nordeste 0 -- -- 68
2017-10-04 10:00:00 14.7 18 Nordeste 23 Nordeste 0 -- -- 82
2017-10-04 09:00:00 11.8 17 Nordeste 19 Nordeste 0 -- -- 92
2017-10-04 08:00:00 11.6 17 Nordeste 22 Nordeste 0 -- -- 92
2017-10-04 07:00:00 12.2 17 Nordeste 24 Nordeste 0 -- -- 90
2017-10-04 06:00:00 13.3 20 Nordeste 26 Nordeste 0 -- -- 86
2017-10-04 05:00:00 14 21 Nordeste 26 Nordeste 0 -- -- 82
2017-10-04 04:00:00 14.7 21 Nordeste 27 Nordeste 0 -- -- 77
2017-10-04 03:00:00 14.2 13 Nordeste 22 Nordeste 0 -- -- 73
2017-10-04 02:00:00 15.6 18 Nordeste 21 Nordeste 0 -- -- 67
2017-10-04 01:00:00 16.3 16 Nordeste 22 Este 0 -- -- 61
2017-10-04 00:00:00 17.7 16 Nordeste 19 Nordeste 0 -- -- 53
2017-10-03 23:00:00 19.4 9 Este 14 Sudeste 0 -- -- 48
2017-10-03 22:00:00 21.7 11 Este 16 Este 0 -- -- 42
2017-10-03 21:00:00 22.3 7 Sudeste 13 Sudoeste 0 -- -- 34
2017-10-03 20:00:00 25.2 9 Sudoeste 18 Sudoeste 0 -- -- 29
2017-10-03 19:00:00 29.3 9 Sudoeste 19 Oeste 0 -- -- 26
2017-10-03 18:00:00 30.9 6 Oeste 22 Oeste 0 -- -- 24
2017-10-03 17:00:00 30.4 5 Sudoeste 23 Sudoeste 0 -- -- 23
2017-10-03 16:00:00 30 8 Nordeste 18 Este 0 -- -- 30
2017-10-03 15:00:00 29.6 8 Nordeste 23 Este 0 -- -- 33
2017-10-03 14:00:00 27.8 11 Sudeste 19 Sudeste 0 -- -- 38
2017-10-03 13:00:00 26.3 10 Este 19 Nordeste 0 -- -- 43
2017-10-03 12:00:00 24 11 Este 15 Nordeste 0 -- -- 51
2017-10-03 11:00:00 22.5 6 Este 11 Este 0 -- -- 57
2017-10-03 10:00:00 17.4 8 Nordeste 12 Nordeste 0 -- -- 75
2017-10-03 09:00:00 15.3 10 Este 12 Este 0 -- -- 82
2017-10-03 08:00:00 14.8 6 Este 14 Este 0 -- -- 82
2017-10-03 07:00:00 15.1 8 Este 12 Este 0 -- -- 82
2017-10-03 06:00:00 15.2 10 Nordeste 13 Nordeste 0 -- -- 82
2017-10-03 05:00:00 15 10 Nordeste 13 Nordeste 0 -- -- 80
2017-10-03 04:00:00 15.8 3 Norte 10 Nordeste 0 -- -- 77
2017-10-03 03:00:00 18.7 5 Sudoeste 9 Sudoeste 0 -- -- 65
2017-10-03 02:00:00 19.8 6 Sudoeste 11 Sur 0 -- -- 61
2017-10-03 01:00:00 20 7 Sur 9 Sur 0 -- -- 61
2017-10-03 00:00:00 19.2 4 Sudoeste 9 Sur 0 -- -- 64
2017-10-02 23:00:00 20.8 4 Sur 6 Oeste 0 -- -- 59
2017-10-02 22:00:00 21 5 Sur 8 Sudeste 0 -- -- 58
2017-10-02 21:00:00 21.7 6 Sudeste 11 Sur 0 -- -- 56
2017-10-02 20:00:00 24.4 10 Sudeste 12 Sudeste 0 -- -- 50
2017-10-02 19:00:00 28.4 6 Sur 14 Sudeste 0 -- -- 40
2017-10-02 18:00:00 31.3 4 Norte 11 Oeste 0 -- -- 35
2017-10-02 17:00:00 28.8 4 Sudoeste 25 Nordeste 0 -- -- 40
2017-10-02 16:00:00 28.8 7 Nordeste 23 Este 0 -- -- 40
2017-10-02 15:00:00 27.4 9 Este 26 Este 0 -- -- 44
2017-10-02 14:00:00 26.9 10 Este 22 Nordeste 0 -- -- 47
2017-10-02 13:00:00 25.9 11 Nordeste 26 Nordeste 0 -- -- 50
2017-10-02 12:00:00 24.2 11 Este 18 Este 0 -- -- 51
2017-10-02 11:00:00 21.7 14 Nordeste 21 Nordeste 0 -- -- 53
2017-10-02 10:00:00 18.4 12 Nordeste 14 Nordeste 0 -- -- 63
2017-10-02 09:00:00 14.7 9 Nordeste 12 Nordeste 0 -- -- 72
2017-10-02 08:00:00 13 12 Nordeste 12 Nordeste 0 -- -- 78
2017-10-02 07:00:00 13.9 3 Este 8 Este 0 -- -- 74
2017-10-02 06:00:00 13.5 6 Nordeste 15 Nordeste 0 -- -- 74
2017-10-02 05:00:00 14.3 11 Nordeste 15 Este 0 -- -- 70
2017-10-02 04:00:00 14.6 10 Nordeste 11 Nordeste 0 -- -- 68
2017-10-02 03:00:00 15.2 0 Calma 9 Nordeste 0 -- -- 67
2017-10-02 02:00:00 14.5 6 Nordeste 12 Este 0 -- -- 68
2017-10-02 01:00:00 15.9 11 Este 13 Este 0 -- -- 63
2017-10-02 00:00:00 17.1 4 Este 12 Este 0 -- -- 58
2017-10-01 23:00:00 18 8 Este 14 Este 0 -- -- 55
2017-10-01 22:00:00 19 9 Nordeste 13 Este 0 -- -- 52
2017-10-01 21:00:00 20.8 9 Este 12 Este 0 -- -- 47
2017-10-01 20:00:00 23.8 0 Calma 9 Nordeste 0 -- -- 39
2017-10-01 19:00:00 25.2 5 Nordeste 23 Oeste 0 -- -- 36
2017-10-01 18:00:00 28 9 Norte 20 Este 0 -- -- 31
2017-10-01 17:00:00 26.2 9 Sur 15 Sur 0 -- -- 35
2017-10-01 16:00:00 25.9 4 Sudoeste 14 Sudoeste 0 -- -- 35
2017-10-01 15:00:00 26.3 10 Norte 19 Oeste 0 -- -- 35
2017-10-01 14:00:00 24.5 8 Noroeste 12 Oeste 0 -- -- 41
2017-10-01 13:00:00 25.4 5 Noroeste 12 Sur 0 -- -- 39
2017-10-01 12:00:00 22.5 5 Oeste 10 Sudoeste 0 -- -- 46
2017-10-01 11:00:00 19.5 3 Norte 12 Nordeste 0 -- -- 53
2017-10-01 10:00:00 16.9 9 Nordeste 13 Nordeste 0 -- -- 63
2017-10-01 09:00:00 13.2 13 Norte 15 Norte 0 -- -- 77
2017-10-01 08:00:00 10.4 4 Norte 12 Nordeste 0 -- -- 86
2017-10-01 07:00:00 10.1 7 Norte 11 Nordeste 0 -- -- 86
2017-10-01 06:00:00 10.5 5 Noroeste 6 Este 0 -- -- 84
2017-10-01 05:00:00 12.5 6 Este 14 Este 0 -- -- 77
2017-10-01 04:00:00 13.2 9 Este 18 Este 0 -- -- 74
2017-10-01 03:00:00 13 8 Este 16 Este 0 -- -- 74
2017-10-01 02:00:00 13.1 11 Nordeste 14 Nordeste 0 -- -- 71
2017-10-01 01:00:00 14.9 7 Nordeste 10 Nordeste 0 -- -- 65
2017-10-01 00:00:00 14.2 3 Noroeste 12 Norte 0 -- -- 67
2017-09-30 23:00:00 14.6 11 Norte 16 Norte 0 -- -- 65
2017-09-30 22:00:00 15 9 Norte 14 Sudoeste 0 -- -- 61
2017-09-30 21:00:00 17.9 12 Sudoeste 21 Sudoeste 0 -- -- 53
2017-09-30 20:00:00 20.4 13 Sudoeste 21 Oeste 0 -- -- 47
2017-09-30 19:00:00 23.7 13 Oeste 22 Oeste 0 -- -- 41
2017-09-30 18:00:00 25.2 8 Oeste 21 Noroeste 0 -- -- 37
2017-09-30 17:00:00 25.9 8 Noroeste 24 Noroeste 0 -- -- 34
2017-09-30 16:00:00 24.9 11 Noroeste 25 Oeste 0 -- -- 39
2017-09-30 15:00:00 24.2 8 Sudoeste 18 Oeste 0 -- -- 41
2017-09-30 14:00:00 22.7 5 Norte 18 Oeste 0 -- -- 53
2017-09-30 13:00:00 17.9 11 Oeste 16 Oeste 0 -- -- 72
2017-09-30 12:00:00 16.7 8 Oeste 13 Noroeste 0 -- -- 78
2017-09-30 11:00:00 14.7 5 Oeste 9 Sudoeste 0 -- -- 89
2017-09-30 10:00:00 12.8 6 Sur 7 Sur 0 -- -- 98
2017-09-30 09:00:00 12.2 0 Calma 7 Sudoeste 0 -- -- 99
2017-09-30 08:00:00 12.2 3 Sudoeste 10 Sudoeste 0 -- -- 99
2017-09-30 07:00:00 12.9 6 Oeste 13 Sudoeste 0 -- -- 96
2017-09-30 06:00:00 13.2 9 Sudoeste 13 Sudoeste 0 -- -- 95
2017-09-30 05:00:00 13.6 10 Sudoeste 14 Sudoeste 0 -- -- 91
2017-09-30 04:00:00 14 10 Sudoeste 11 Sudoeste 0 -- -- 87
2017-09-30 03:00:00 14.3 7 Sur 11 Sudoeste 0 -- -- 84
2017-09-30 02:00:00 15.6 10 Sudoeste 14 Sudoeste 0 -- -- 75
2017-09-30 01:00:00 15.6 12 Sudoeste 13 Sudoeste 0 -- -- 69
2017-09-30 00:00:00 15.9 12 Sudoeste 14 Sudoeste 0 -- -- 61
2017-09-29 23:00:00 16 4 Sur 10 Oeste 0 -- -- 58
2017-09-29 22:00:00 17.8 3 Oeste 10 Noroeste 0 -- -- 50
2017-09-29 21:00:00 18.5 7 Noroeste 15 Oeste 0 -- -- 47
2017-09-29 20:00:00 21.8 9 Oeste 27 Oeste 0 -- -- 39
2017-09-29 19:00:00 25.1 14 Oeste 33 Oeste 0 -- -- 29
2017-09-29 18:00:00 25.8 17 Sudoeste 37 Sur 0 -- -- 27
2017-09-29 17:00:00 26.4 21 Sudoeste 36 Sudoeste 0 -- -- 29
2017-09-29 16:00:00 26 20 Sudoeste 36 Oeste 0 -- -- 28
2017-09-29 15:00:00 24.9 22 Sudoeste 35 Sudoeste 0 -- -- 33
2017-09-29 14:00:00 24.5 15 Sudoeste 28 Sudoeste 0 -- -- 34
2017-09-29 13:00:00 23.3 14 Sudoeste 24 Sudoeste 0 -- -- 38
2017-09-29 12:00:00 22.3 10 Sudoeste 17 Sudoeste 0 -- -- 44
2017-09-29 11:00:00 21 6 Sudoeste 10 Oeste 0 -- -- 51
2017-09-29 10:00:00 18.3 4 Noroeste 6 Nordeste 0 -- -- 57
2017-09-29 09:00:00 13 4 Oeste 9 Oeste 0 -- -- 74
2017-09-29 08:00:00 12.8 5 Sudoeste 8 Sudoeste 0 -- -- 74
2017-09-29 07:00:00 12.9 4 Sur 6 Oeste 0 -- -- 72
2017-09-29 06:00:00 13.9 6 Oeste 8 Oeste 0 -- -- 67
2017-09-29 05:00:00 13.3 5 Noroeste 8 Noroeste 0 -- -- 69
2017-09-29 04:00:00 14 6 Noroeste 13 Noroeste 0 -- -- 65
2017-09-29 03:00:00 14.7 9 Oeste 13 Oeste 0 -- -- 61
2017-09-29 02:00:00 16 8 Oeste 14 Oeste 0 -- -- 56
2017-09-29 01:00:00 17 9 Oeste 11 Oeste 0 -- -- 53
2017-09-29 00:00:00 16.8 7 Oeste 9 Oeste 0 -- -- 48
2017-09-28 23:00:00 17.1 6 Noroeste 14 Noroeste 0 -- -- 43
2017-09-28 22:00:00 19 6 Noroeste 17 Noroeste 0 -- -- 37
2017-09-28 21:00:00 20.5 4 Noroeste 9 Oeste 0 -- -- 32
2017-09-28 20:00:00 23.2 7 Oeste 21 Oeste 0 -- -- 28
2017-09-28 19:00:00 26 15 Oeste 33 Sudoeste 0 -- -- 23
2017-09-28 18:00:00 27.1 15 Oeste 27 Sudoeste 0 -- -- 23
2017-09-28 17:00:00 27.2 18 Sudoeste 29 Sur 0 -- -- 23
2017-09-28 16:00:00 26.7 13 Sudoeste 27 Sudoeste 0 -- -- 22
2017-09-28 15:00:00 26.4 12 Sudoeste 28 Sur 0 -- -- 24
2017-09-28 14:00:00 25 14 Sudoeste 28 Sudoeste 0 -- -- 27
2017-09-28 13:00:00 24.8 9 Sudoeste 19 Sudeste 0 -- -- 31
2017-09-28 12:00:00 22.7 9 Sur 14 Sudeste 0 -- -- 44
2017-09-28 11:00:00 21 8 Sudeste 12 Este 0 -- -- 52
2017-09-28 10:00:00 17.7 5 Este 7 Sudeste 0 -- -- 60
2017-09-28 09:00:00 12.8 4 Sudeste 9 Nordeste 0 -- -- 80
2017-09-28 08:00:00 11.4 4 Sudeste 8 Este 0 -- -- 87
2017-09-28 07:00:00 11.2 4 Este 6 Este 0 -- -- 81
2017-09-28 06:00:00 12.5 4 Oeste 7 Sudoeste 0 -- -- 84
2017-09-28 05:00:00 15.3 6 Sudoeste 8 Sudoeste 0 -- -- 71
2017-09-28 04:00:00 15 6 Sudoeste 9 Oeste 0 -- -- 70
2017-09-28 03:00:00 15.1 8 Oeste 16 Sudoeste 0 -- -- 65
2017-09-28 02:00:00 15.8 14 Sudoeste 15 Sudoeste 0 -- -- 49
2017-09-28 01:00:00 14.7 7 Oeste 10 Oeste 0 -- -- 45
2017-09-28 00:00:00 14.5 9 Oeste 13 Sur 0 -- -- 40
2017-09-27 23:00:00 15.9 10 Sur 17 Sur 0 -- -- 37
2017-09-27 22:00:00 17.8 3 Oeste 8 Oeste 0 -- -- 31
2017-09-27 21:00:00 19.2 4 Noroeste 10 Sudoeste 0 -- -- 29
2017-09-27 20:00:00 22.7 8 Sudoeste 19 Sudoeste 0 -- -- 24
2017-09-27 19:00:00 25.5 13 Sudoeste 25 Sudoeste 0 -- -- 20
2017-09-27 18:00:00 26 13 Oeste 37 Sur 0 -- -- 20
2017-09-27 17:00:00 26.2 13 Sudoeste 31 Sudoeste 0 -- -- 22
2017-09-27 16:00:00 25.7 15 Sudoeste 28 Sudoeste 0 -- -- 24
2017-09-27 15:00:00 24.8 19 Sudoeste 32 Oeste 0 -- -- 26
2017-09-27 14:00:00 25.2 12 Sur 27 Oeste 0 -- -- 27
2017-09-27 13:00:00 24.1 10 Sur 22 Sur 0 -- -- 29
2017-09-27 12:00:00 23.5 5 Este 15 Sur 0 -- -- 31
2017-09-27 11:00:00 21 3 Sudeste 12 Este 0 -- -- 37
2017-09-27 10:00:00 17.2 8 Este 10 Este 0 -- -- 44
2017-09-27 09:00:00 12.1 7 Nordeste 13 Nordeste 0 -- -- 55
2017-09-27 08:00:00 9.5 11 Nordeste 12 Nordeste 0 -- -- 63
2017-09-27 07:00:00 12.3 2 Norte 3 Norte 0 -- -- 65
2017-09-27 06:00:00 11 3 Sudoeste 5 Oeste 0 -- -- 58
2017-09-27 05:00:00 13 4 Sur 6 Sur 0 -- -- 53
2017-09-27 04:00:00 9.7 3 Sur 8 Sudeste 0 -- -- 61
2017-09-27 03:00:00 13.3 6 Este 9 Este 0 -- -- 48
2017-09-27 02:00:00 14.8 3 Este 4 Este 0 -- -- 41
2017-09-27 01:00:00 11.8 4 Oeste 8 Noroeste 0 -- -- 53
2017-09-27 00:00:00 15.4 3 Sur 4 Sudoeste 0 -- -- 43
2017-09-26 23:00:00 15.8 3 Oeste 9 Oeste 0 -- -- 43
2017-09-26 22:00:00 17.5 6 Oeste 13 Sudoeste 0 -- -- 40
2017-09-26 21:00:00 17.9 6 Sudoeste 11 Oeste 0 -- -- 39
2017-09-26 20:00:00 21.3 9 Oeste 18 Sudoeste 0 -- -- 33
2017-09-26 19:00:00 24.3 9 Sudoeste 19 Sudoeste 0 -- -- 30
2017-09-26 18:00:00 25.2 8 Sudoeste 20 Sudoeste 0 -- -- 30
2017-09-26 17:00:00 24.8 6 Sur 15 Noroeste 0 -- -- 30
2017-09-26 16:00:00 23.8 10 Sudoeste 18 Sudoeste 0 -- -- 33
2017-09-26 15:00:00 23.2 8 Nordeste 16 Este 0 -- -- 36
2017-09-26 14:00:00 21.6 11 Este 21 Este 0 -- -- 41
2017-09-26 13:00:00 19.1 14 Este 22 Este 0 -- -- 51
2017-09-26 12:00:00 18.4 13 Nordeste 24 Este 0 -- -- 57
2017-09-26 11:00:00 15.9 15 Nordeste 28 Nordeste 0 -- -- 66
2017-09-26 10:00:00 12.6 13 Nordeste 18 Nordeste 0 -- -- 81
2017-09-26 09:00:00 9.6 13 Nordeste 15 Nordeste 0 -- -- 93
2017-09-26 08:00:00 8.2 13 Nordeste 17 Nordeste 0 -- -- 97
2017-09-26 07:00:00 9.2 14 Nordeste 22 Nordeste 0 -- -- 94
2017-09-26 06:00:00 9 18 Nordeste 22 Nordeste 0 -- -- 95
2017-09-26 05:00:00 9.8 18 Nordeste 25 Nordeste 0 -- -- 91
2017-09-26 04:00:00 10.2 18 Nordeste 22 Nordeste 0 -- -- 88
2017-09-26 03:00:00 11 17 Nordeste 21 Nordeste 0 -- -- 84
2017-09-26 02:00:00 10.9 16 Nordeste 20 Nordeste 0 -- -- 78
2017-09-26 01:00:00 11.5 16 Nordeste 23 Nordeste 0 -- -- 68
2017-09-26 00:00:00 13 14 Nordeste 19 Norte 0 -- -- 59
2017-09-25 23:00:00 13.6 5 Norte 9 Noroeste 0 -- -- 55
2017-09-25 22:00:00 15.1 7 Oeste 21 Norte 0 -- -- 49
2017-09-25 21:00:00 17.3 5 Noroeste 8 Noroeste 0 -- -- 38
2017-09-25 20:00:00 21.8 2 Oeste 10 Noroeste 0 -- -- 30
2017-09-25 19:00:00 24.5 3 Nordeste 17 Noroeste 0 -- -- 27
2017-09-25 18:00:00 24.4 7 Oeste 16 Sudoeste 0 -- -- 29
2017-09-25 17:00:00 23.7 10 Oeste 23 Noroeste 0 -- -- 33
2017-09-25 16:00:00 23.5 10 Noroeste 23 Noroeste 0 -- -- 34
2017-09-25 15:00:00 20.2 10 Sudoeste 22 Sudoeste 0 -- -- 44
2017-09-25 14:00:00 20.3 8 Oeste 21 Oeste 0 -- -- 47
2017-09-25 13:00:00 19.3 7 Sur 19 Sur 0 -- -- 52
2017-09-25 12:00:00 17.6 9 Sur 17 Sur 0 -- -- 61
2017-09-25 11:00:00 18.3 0 Calma 8 Sudoeste 0 -- -- 61
2017-09-25 10:00:00 14 4 Sudoeste 7 Sudoeste 0 -- -- 82
2017-09-25 09:00:00 9.5 2 Sudoeste 4 Sudoeste 0 -- -- 98
2017-09-25 08:00:00 7.7 5 Noroeste 9 Oeste 0 -- -- 96
2017-09-25 07:00:00 9.3 5 Oeste 12 Sudoeste 0 -- -- 100
2017-09-25 06:00:00 9.7 9 Sudoeste 14 Sudoeste 0 -- -- 97
2017-09-25 05:00:00 9.8 10 Sudoeste 15 Sudoeste 0 -- -- 97
2017-09-25 04:00:00 11.3 10 Sudoeste 21 Oeste 0 -- -- 91
2017-09-25 03:00:00 12.1 13 Oeste 18 Oeste 0 -- -- 91
2017-09-25 02:00:00 13.8 12 Oeste 27 Oeste 0 -- -- 84
2017-09-25 01:00:00 15 13 Oeste 22 Oeste 0 -- -- 82
2017-09-25 00:00:00 16.3 11 Oeste 24 Oeste 0 -- -- 76
2017-09-24 23:00:00 17 14 Sudoeste 27 Oeste 0 -- -- 73
2017-09-24 22:00:00 18.8 17 Oeste 27 Oeste 0 -- -- 59
2017-09-24 21:00:00 20.6 14 Oeste 28 Oeste 0 -- -- 34
2017-09-24 20:00:00 22.5 20 Oeste 33 Oeste 0 -- -- 26
2017-09-24 19:00:00 23.5 14 Sudoeste 29 Oeste 0 -- -- 19
2017-09-24 18:00:00 24.3 18 Sudoeste 35 Sudoeste 0 -- -- 19
2017-09-24 17:00:00 25.6 22 Sudoeste 41 Sudoeste 0 -- -- 16
2017-09-24 16:00:00 26 24 Sudoeste 40 Sudoeste 0 -- -- 13
2017-09-24 15:00:00 25.3 22 Sudoeste 38 Sudoeste 0 -- -- 14
2017-09-24 14:00:00 24.4 20 Sudoeste 31 Sudoeste 0 -- -- 15
2017-09-24 13:00:00 24.5 13 Sur 22 Sudoeste 0 -- -- 19
2017-09-24 12:00:00 22.2 12 Sudoeste 20 Oeste 0 -- -- 36
2017-09-24 11:00:00 20 9 Sudoeste 16 Sudoeste 0 -- -- 45
2017-09-24 10:00:00 18.7 3 Sur 6 Sur 0 -- -- 51
2017-09-24 09:00:00 14.1 2 Sur 4 Sur 0 -- -- 62
2017-09-24 08:00:00 11.2 0 Calma 7 Sur 0 -- -- 73
2017-09-24 07:00:00 11.9 5 Sudeste 6 Sudeste 0 -- -- 68
2017-09-24 06:00:00 10.5 0 Calma 7 Sudoeste 0 -- -- 74
2017-09-24 05:00:00 13 6 Sur 7 Sur 0 -- -- 62
2017-09-24 04:00:00 13.1 4 Sudoeste 5 Sudoeste 0 -- -- 59
2017-09-24 03:00:00 14.5 4 Sudoeste 9 Oeste 0 -- -- 53
2017-09-24 02:00:00 14.6 8 Oeste 14 Oeste 0 -- -- 54
2017-09-24 01:00:00 15.4 7 Oeste 13 Oeste 0 -- -- 49
2017-09-24 00:00:00 16.3 11 Oeste 14 Oeste 0 -- -- 44
2017-09-23 23:00:00 16.6 7 Oeste 14 Noroeste 0 -- -- 40
2017-09-23 22:00:00 17.8 7 Oeste 17 Sudoeste 0 -- -- 38
2017-09-23 21:00:00 20.3 6 Oeste 15 Oeste 0 -- -- 37
2017-09-23 20:00:00 21.6 8 Oeste 23 Oeste 0 -- -- 35
2017-09-23 19:00:00 23.2 17 Oeste 28 Oeste 0 -- -- 29
2017-09-23 18:00:00 24.9 16 Sudoeste 34 Oeste 0 -- -- 28
2017-09-23 17:00:00 25.6 16 Sudoeste 36 Oeste 0 -- -- 27
2017-09-23 16:00:00 25.4 17 Sudoeste 37 Oeste 0 -- -- 27
2017-09-23 15:00:00 24.8 18 Sudoeste 37 Oeste 0 -- -- 32
2017-09-23 14:00:00 23.9 17 Sudoeste 28 Sudoeste 0 -- -- 37
2017-09-23 13:00:00 22.8 14 Sudoeste 24 Sudoeste 0 -- -- 41
2017-09-23 12:00:00 21.6 8 Sudoeste 19 Sudoeste 0 -- -- 46
2017-09-23 11:00:00 18.2 10 Nordeste 14 Nordeste 0 -- -- 61
2017-09-23 10:00:00 15.3 8 Nordeste 11 Este 0 -- -- 74
2017-09-23 09:00:00 11.8 8 Nordeste 13 Nordeste 0 -- -- 88
2017-09-23 08:00:00 9.5 12 Nordeste 14 Nordeste 0 -- -- 96
2017-09-23 07:00:00 9.4 8 Nordeste 19 Nordeste 0 -- -- 94
2017-09-23 06:00:00 10.3 18 Nordeste 23 Nordeste 0 -- -- 91
2017-09-23 05:00:00 11.7 17 Nordeste 23 Nordeste 0 -- -- 86
2017-09-23 04:00:00 12 17 Nordeste 21 Nordeste 0 -- -- 82
2017-09-23 03:00:00 13 18 Nordeste 23 Nordeste 0 -- -- 78
2017-09-23 02:00:00 14.2 17 Este 22 Este 0 -- -- 74
2017-09-23 01:00:00 15.4 16 Este 22 Este 0 -- -- 68
2017-09-23 00:00:00 16.3 15 Este 20 Este 0 -- -- 61
2017-09-22 23:00:00 16.2 12 Nordeste 16 Este 0 -- -- 53
2017-09-22 22:00:00 18.2 10 Este 13 Este 0 -- -- 44
2017-09-22 21:00:00 19.5 9 Este 10 Sudeste 0 -- -- 41
2017-09-22 20:00:00 20.7 5 Sudeste 12 Sudeste 0 -- -- 40
2017-09-22 19:00:00 23.9 9 Este 20 Este 0 -- -- 34
2017-09-22 18:00:00 23.7 6 Norte 19 Nordeste 0 -- -- 35
2017-09-22 17:00:00 23.6 4 Nordeste 14 Este 0 -- -- 36
2017-09-22 16:00:00 23.1 6 Nordeste 18 Nordeste 0 -- -- 40
2017-09-22 15:00:00 23.3 8 Sudeste 21 Este 0 -- -- 41
2017-09-22 14:00:00 22 12 Nordeste 23 Este 0 -- -- 47
2017-09-22 13:00:00 20.2 15 Nordeste 28 Nordeste 0 -- -- 52
2017-09-22 12:00:00 18.2 21 Nordeste 31 Este 0 -- -- 60
2017-09-22 11:00:00 16.5 22 Nordeste 35 Nordeste 0 -- -- 68
2017-09-22 10:00:00 14.7 23 Nordeste 30 Nordeste 0 -- -- 76
2017-09-22 09:00:00 12.3 19 Nordeste 28 Nordeste 0 -- -- 87
2017-09-22 08:00:00 11 18 Nordeste 26 Nordeste 0 -- -- 92
2017-09-22 07:00:00 10.9 15 Nordeste 25 Nordeste 0 -- -- 92
2017-09-22 06:00:00 11.8 19 Nordeste 25 Nordeste 0 -- -- 89
2017-09-22 05:00:00 12.5 20 Nordeste 31 Nordeste 0 -- -- 87
2017-09-22 04:00:00 12.4 16 Nordeste 23 Nordeste 0 -- -- 85
2017-09-22 03:00:00 13 20 Nordeste 27 Nordeste 0 -- -- 80
2017-09-22 02:00:00 13 15 Nordeste 24 Nordeste 0 -- -- 78
2017-09-22 01:00:00 14.5 20 Nordeste 27 Nordeste 0 -- -- 72
2017-09-22 00:00:00 15.5 17 Nordeste 28 Nordeste 0 -- -- 67
2017-09-21 23:00:00 15.7 14 Nordeste 19 Nordeste 0 -- -- 64
2017-09-21 22:00:00 16.9 4 Noroeste 12 Oeste 0 -- -- 59
2017-09-21 21:00:00 19.2 9 Oeste 15 Oeste 0 -- -- 51
2017-09-21 20:00:00 21.3 13 Oeste 21 Oeste 0 -- -- 43
2017-09-21 19:00:00 22.9 7 Sur 27 Sudoeste 0 -- -- 40
2017-09-21 18:00:00 24.9 11 Sudoeste 30 Oeste 0 -- -- 33
2017-09-21 17:00:00 23.4 11 Sudoeste 24 Oeste 0 -- -- 31
2017-09-21 16:00:00 22.4 14 Sudoeste 26 Oeste 0 -- -- 35
2017-09-21 15:00:00 23.8 8 Sudoeste 21 Sudoeste 0 -- -- 28
2017-09-21 14:00:00 21.9 12 Sudoeste 21 Sudoeste 0 -- -- 35
2017-09-21 13:00:00 21.7 8 Sudoeste 18 Sudoeste 0 -- -- 38
2017-09-21 12:00:00 20.3 5 Sudoeste 13 Oeste 0 -- -- 48
2017-09-21 11:00:00 18.5 6 Sudoeste 14 Sudoeste 0 -- -- 58
2017-09-21 10:00:00 15 11 Sudoeste 17 Sudoeste 0 -- -- 71
2017-09-21 09:00:00 13.4 3 Sudoeste 9 Sudoeste 0 -- -- 75
2017-09-21 08:00:00 12.1 7 Oeste 10 Sudoeste 0 -- -- 78
2017-09-21 07:00:00 12.4 6 Sudoeste 9 Nordeste 0 -- -- 78
2017-09-21 06:00:00 11.4 8 Nordeste 9 Nordeste 0 -- -- 60
2017-09-21 05:00:00 11.2 7 Nordeste 10 Sudoeste 0 -- -- 67
2017-09-21 04:00:00 15.1 8 Sudoeste 10 Sudoeste 0 -- -- 59
2017-09-21 03:00:00 15.7 10 Sudoeste 12 Sudoeste 0 -- -- 52
2017-09-21 02:00:00 15.5 8 Sudoeste 9 Sudoeste 0 -- -- 50
2017-09-21 01:00:00 16.4 5 Sudoeste 9 Oeste 0 -- -- 45
2017-09-21 00:00:00 16.2 6 Oeste 13 Oeste 0 -- -- 39
2017-09-20 23:00:00 18.2 4 Sudoeste 6 Oeste 0 -- -- 29
2017-09-20 22:00:00 19 4 Sudoeste 8 Sudoeste 0 -- -- 29
2017-09-20 21:00:00 20.2 7 Sudoeste 14 Sudoeste 0 -- -- 29
2017-09-20 20:00:00 23.3 10 Sudoeste 18 Sudoeste 0 -- -- 24
2017-09-20 19:00:00 26.1 11 Sudoeste 26 Sudoeste 0 -- -- 19
2017-09-20 18:00:00 26.4 10 Oeste 26 Sudoeste 0 -- -- 20
2017-09-20 17:00:00 25.9 12 Sudoeste 26 Sudoeste 0 -- -- 21
2017-09-20 16:00:00 26.6 8 Oeste 27 Sudoeste 0 -- -- 23
2017-09-20 15:00:00 24.9 11 Sur 21 Oeste 0 -- -- 25
2017-09-20 14:00:00 24.8 5 Sudoeste 19 Sur 0 -- -- 26
2017-09-20 13:00:00 23.3 6 Nordeste 17 Este 0 -- -- 29
2017-09-20 12:00:00 20.5 6 Este 15 Este 0 -- -- 34
2017-09-20 11:00:00 17.3 11 Este 17 Nordeste 0 -- -- 41
2017-09-20 10:00:00 14.1 8 Este 12 Este 0 -- -- 49
2017-09-20 09:00:00 10 10 Nordeste 12 Nordeste 0 -- -- 62
2017-09-20 08:00:00 7.4 10 Nordeste 12 Nordeste 0 -- -- 69
2017-09-20 07:00:00 7 10 Nordeste 14 Nordeste 0 -- -- 69
2017-09-20 06:00:00 8.8 12 Nordeste 13 Nordeste 0 -- -- 62
2017-09-20 05:00:00 10.3 13 Nordeste 16 Nordeste 0 -- -- 57
2017-09-20 04:00:00 9.2 11 Nordeste 13 Nordeste 0 -- -- 61
2017-09-20 03:00:00 10.8 9 Nordeste 11 Nordeste 0 -- -- 55
2017-09-20 02:00:00 10.2 9 Nordeste 12 Nordeste 0 -- -- 58
2017-09-20 01:00:00 13.1 5 Este 8 Este 0 -- -- 48
2017-09-20 00:00:00 12.7 5 Nordeste 9 Este 0 -- -- 50